sensor_id;sensor_type;location;lat;lon;timestamp;pressure;altitude;pressure_sealevel;temperature;humidity
71384;BME280;67558;52.166;5.004;2023-11-19T00:00:49;100816.13;;;17.45;66.25
71384;BME280;67558;52.166;5.004;2023-11-19T00:03:16;100804.78;;;17.34;66.71
71384;BME280;67558;52.166;5.004;2023-11-19T00:05:41;100815.81;;;17.46;66.33
71384;BME280;67558;52.166;5.004;2023-11-19T00:08:06;100812.50;;;17.49;66.40
71384;BME280;67558;52.166;5.004;2023-11-19T00:10:33;100817.91;;;17.49;66.16
71384;BME280;67558;52.166;5.004;2023-11-19T00:12:59;100818.03;;;17.44;66.50
71384;BME280;67558;52.166;5.004;2023-11-19T00:15:24;100808.56;;;17.55;66.15
71384;BME280;67558;52.166;5.004;2023-11-19T00:17:50;100804.72;;;17.56;66.07
71384;BME280;67558;52.166;5.004;2023-11-19T00:20:19;100809.94;;;17.53;66.05
71384;BME280;67558;52.166;5.004;2023-11-19T00:22:47;100808.66;;;17.50;65.94
71384;BME280;67558;52.166;5.004;2023-11-19T00:25:17;100805.97;;;17.50;65.90
71384;BME280;67558;52.166;5.004;2023-11-19T00:27:42;100814.56;;;17.52;65.87
71384;BME280;67558;52.166;5.004;2023-11-19T00:30:10;100806.75;;;17.51;65.89
71384;BME280;67558;52.166;5.004;2023-11-19T00:32:35;100803.75;;;17.52;65.69
71384;BME280;67558;52.166;5.004;2023-11-19T00:35:03;100808.06;;;17.53;65.75
71384;BME280;67558;52.166;5.004;2023-11-19T00:37:29;100799.91;;;17.45;66.22
71384;BME280;67558;52.166;5.004;2023-11-19T00:39:54;100789.59;;;17.47;66.08
71384;BME280;67558;52.166;5.004;2023-11-19T00:42:22;100795.31;;;17.54;65.87
71384;BME280;67558;52.166;5.004;2023-11-19T00:44:47;100785.13;;;17.51;65.79
71384;BME280;67558;52.166;5.004;2023-11-19T00:47:12;100791.34;;;17.51;65.82
71384;BME280;67558;52.166;5.004;2023-11-19T00:49:38;100788.50;;;17.56;65.75
71384;BME280;67558;52.166;5.004;2023-11-19T00:52:03;100783.25;;;17.60;65.22
71384;BME280;67558;52.166;5.004;2023-11-19T00:54:29;100786.75;;;17.60;65.55
71384;BME280;67558;52.166;5.004;2023-11-19T00:56:54;100790.09;;;17.57;65.41
71384;BME280;67558;52.166;5.004;2023-11-19T00:59:20;100785.47;;;17.58;65.23
71384;BME280;67558;52.166;5.004;2023-11-19T01:01:46;100792.31;;;17.55;64.84
71384;BME280;67558;52.166;5.004;2023-11-19T01:04:13;100795.31;;;17.54;65.13
71384;BME280;67558;52.166;5.004;2023-11-19T01:06:39;100786.72;;;17.52;65.12
71384;BME280;67558;52.166;5.004;2023-11-19T01:09:05;100780.69;;;17.55;64.83
71384;BME280;67558;52.166;5.004;2023-11-19T01:11:30;100782.56;;;17.46;65.39
71384;BME280;67558;52.166;5.004;2023-11-19T01:13:56;100773.34;;;17.47;65.16
71384;BME280;67558;52.166;5.004;2023-11-19T01:16:21;100757.13;;;17.47;65.16
71384;BME280;67558;52.166;5.004;2023-11-19T01:18:47;100753.50;;;17.51;65.14
71384;BME280;67558;52.166;5.004;2023-11-19T01:21:13;100750.59;;;17.48;65.14
71384;BME280;67558;52.166;5.004;2023-11-19T01:23:40;100751.88;;;17.50;65.09
71384;BME280;67558;52.166;5.004;2023-11-19T01:26:05;100748.16;;;17.37;65.36
71384;BME280;67558;52.166;5.004;2023-11-19T01:28:31;100759.47;;;17.39;65.00
71384;BME280;67558;52.166;5.004;2023-11-19T01:30:56;100761.84;;;17.32;65.19
71384;BME280;67558;52.166;5.004;2023-11-19T01:33:22;100760.41;;;17.35;65.32
71384;BME280;67558;52.166;5.004;2023-11-19T01:35:47;100750.72;;;17.34;65.36
71384;BME280;67558;52.166;5.004;2023-11-19T01:38:12;100752.59;;;17.33;64.74
71384;BME280;67558;52.166;5.004;2023-11-19T01:40:38;100757.22;;;17.33;64.76
71384;BME280;67558;52.166;5.004;2023-11-19T01:43:03;100756.25;;;17.29;64.64
71384;BME280;67558;52.166;5.004;2023-11-19T01:45:30;100756.50;;;17.18;64.71
71384;BME280;67558;52.166;5.004;2023-11-19T01:47:56;100755.56;;;17.14;64.67
71384;BME280;67558;52.166;5.004;2023-11-19T01:50:23;100753.94;;;17.13;64.31
71384;BME280;67558;52.166;5.004;2023-11-19T01:52:51;100756.13;;;17.03;64.88
71384;BME280;67558;52.166;5.004;2023-11-19T01:55:17;100768.78;;;16.93;64.91
71384;BME280;67558;52.166;5.004;2023-11-19T01:57:44;100770.44;;;17.03;64.73
71384;BME280;67558;52.166;5.004;2023-11-19T02:00:11;100770.28;;;16.99;64.49
71384;BME280;67558;52.166;5.004;2023-11-19T02:02:38;100761.66;;;16.97;64.53
71384;BME280;67558;52.166;5.004;2023-11-19T02:05:05;100756.28;;;16.97;63.89
71384;BME280;67558;52.166;5.004;2023-11-19T02:07:31;100756.31;;;16.84;64.63
71384;BME280;67558;52.166;5.004;2023-11-19T02:09:57;100749.19;;;16.88;64.16
71384;BME280;67558;52.166;5.004;2023-11-19T02:12:25;100753.13;;;16.82;64.27
71384;BME280;67558;52.166;5.004;2023-11-19T02:14:53;100762.34;;;16.81;64.27
71384;BME280;67558;52.166;5.004;2023-11-19T02:17:45;100761.78;;;16.70;64.07
71384;BME280;67558;52.166;5.004;2023-11-19T02:20:10;100773.38;;;16.70;64.52
71384;BME280;67558;52.166;5.004;2023-11-19T02:22:40;100778.03;;;16.56;64.53
71384;BME280;67558;52.166;5.004;2023-11-19T02:25:07;100772.19;;;16.63;64.33
71384;BME280;67558;52.166;5.004;2023-11-19T02:27:53;100775.53;;;16.59;64.38
71384;BME280;67558;52.166;5.004;2023-11-19T02:30:21;100781.13;;;16.63;64.54
71384;BME280;67558;52.166;5.004;2023-11-19T02:32:46;100777.13;;;16.61;64.46
71384;BME280;67558;52.166;5.004;2023-11-19T02:35:13;100785.91;;;16.66;64.13
71384;BME280;67558;52.166;5.004;2023-11-19T02:37:38;100770.31;;;16.63;64.43
71384;BME280;67558;52.166;5.004;2023-11-19T02:40:05;100771.41;;;16.62;64.19
71384;BME280;67558;52.166;5.004;2023-11-19T02:42:30;100763.94;;;16.59;64.21
71384;BME280;67558;52.166;5.004;2023-11-19T02:44:56;100760.94;;;16.61;64.19
71384;BME280;67558;52.166;5.004;2023-11-19T02:47:21;100760.59;;;16.62;64.34
71384;BME280;67558;52.166;5.004;2023-11-19T02:49:49;100751.03;;;16.56;64.13
71384;BME280;67558;52.166;5.004;2023-11-19T02:52:14;100761.81;;;16.56;64.13
71384;BME280;67558;52.166;5.004;2023-11-19T02:54:40;100772.75;;;16.51;64.03
71384;BME280;67558;52.166;5.004;2023-11-19T02:57:06;100762.69;;;16.43;64.01
71384;BME280;67558;52.166;5.004;2023-11-19T02:59:37;100754.78;;;16.46;63.85
71384;BME280;67558;52.166;5.004;2023-11-19T03:02:07;100757.28;;;16.43;63.84
71384;BME280;67558;52.166;5.004;2023-11-19T03:04:36;100751.59;;;16.44;63.94
71384;BME280;67558;52.166;5.004;2023-11-19T03:07:03;100760.19;;;16.46;63.27
71384;BME280;67558;52.166;5.004;2023-11-19T03:09:28;100757.13;;;16.39;63.60
71384;BME280;67558;52.166;5.004;2023-11-19T03:11:54;100757.50;;;16.32;64.10
71384;BME280;67558;52.166;5.004;2023-11-19T03:14:20;100769.91;;;16.33;63.86
71384;BME280;67558;52.166;5.004;2023-11-19T03:16:45;100764.81;;;16.32;63.48
71384;BME280;67558;52.166;5.004;2023-11-19T03:19:11;100771.13;;;16.27;63.66
71384;BME280;67558;52.166;5.004;2023-11-19T03:21:37;100768.72;;;16.26;63.49
71384;BME280;67558;52.166;5.004;2023-11-19T03:24:02;100773.53;;;16.29;63.78
71384;BME280;67558;52.166;5.004;2023-11-19T03:26:28;100761.31;;;16.31;63.23
71384;BME280;67558;52.166;5.004;2023-11-19T03:28:54;100763.59;;;16.15;63.50
71384;BME280;67558;52.166;5.004;2023-11-19T03:31:19;100752.38;;;16.22;63.27
71384;BME280;67558;52.166;5.004;2023-11-19T03:33:45;100732.97;;;16.20;63.01
71384;BME280;67558;52.166;5.004;2023-11-19T03:36:12;100734.56;;;16.21;63.12
71384;BME280;67558;52.166;5.004;2023-11-19T03:38:38;100735.78;;;16.15;63.12
71384;BME280;67558;52.166;5.004;2023-11-19T03:41:13;100730.31;;;16.06;63.41
71384;BME280;67558;52.166;5.004;2023-11-19T03:43:39;100744.50;;;16.12;63.24
71384;BME280;67558;52.166;5.004;2023-11-19T03:46:15;100754.09;;;16.04;63.07
71384;BME280;67558;52.166;5.004;2023-11-19T03:48:40;100755.78;;;16.00;63.24
71384;BME280;67558;52.166;5.004;2023-11-19T03:51:05;100767.56;;;16.04;63.07
71384;BME280;67558;52.166;5.004;2023-11-19T03:53:30;100754.81;;;15.96;63.28
71384;BME280;67558;52.166;5.004;2023-11-19T03:55:56;100762.59;;;15.97;63.25
71384;BME280;67558;52.166;5.004;2023-11-19T03:58:21;100760.41;;;16.00;63.40
71384;BME280;67558;52.166;5.004;2023-11-19T04:00:46;100759.41;;;15.95;63.37
71384;BME280;67558;52.166;5.004;2023-11-19T04:03:12;100755.22;;;15.89;63.46
71384;BME280;67558;52.166;5.004;2023-11-19T04:05:38;100763.31;;;15.89;63.27
71384;BME280;67558;52.166;5.004;2023-11-19T04:08:03;100773.78;;;15.91;63.32
71384;BME280;67558;52.166;5.004;2023-11-19T04:10:28;100780.97;;;15.95;63.05
71384;BME280;67558;52.166;5.004;2023-11-19T04:12:54;100761.75;;;15.74;63.33
71384;BME280;67558;52.166;5.004;2023-11-19T04:15:19;100780.22;;;15.81;63.22
71384;BME280;67558;52.166;5.004;2023-11-19T04:17:44;100789.31;;;15.85;63.41
71384;BME280;67558;52.166;5.004;2023-11-19T04:20:11;100789.09;;;15.82;63.17
71384;BME280;67558;52.166;5.004;2023-11-19T04:22:38;100790.59;;;15.88;63.30
71384;BME280;67558;52.166;5.004;2023-11-19T04:25:04;100796.78;;;15.88;63.03
71384;BME280;67558;52.166;5.004;2023-11-19T04:27:29;100793.88;;;15.85;62.93
71384;BME280;67558;52.166;5.004;2023-11-19T04:29:55;100781.41;;;15.89;62.79
71384;BME280;67558;52.166;5.004;2023-11-19T04:32:20;100778.81;;;15.84;62.94
71384;BME280;67558;52.166;5.004;2023-11-19T04:34:46;100780.22;;;15.81;62.89
71384;BME280;67558;52.166;5.004;2023-11-19T04:37:11;100787.97;;;15.69;63.01
71384;BME280;67558;52.166;5.004;2023-11-19T04:39:36;100791.41;;;15.74;63.26
71384;BME280;67558;52.166;5.004;2023-11-19T04:42:02;100784.41;;;15.73;62.96
71384;BME280;67558;52.166;5.004;2023-11-19T04:44:29;100784.63;;;15.77;62.90
71384;BME280;67558;52.166;5.004;2023-11-19T04:46:55;100785.91;;;15.80;62.86
71384;BME280;67558;52.166;5.004;2023-11-19T04:49:20;100782.50;;;15.74;63.09
71384;BME280;67558;52.166;5.004;2023-11-19T04:51:45;100767.44;;;15.73;62.87
71384;BME280;67558;52.166;5.004;2023-11-19T04:54:14;100762.84;;;15.73;62.70
71384;BME280;67558;52.166;5.004;2023-11-19T04:56:40;100766.63;;;15.72;62.92
71384;BME280;67558;52.166;5.004;2023-11-19T04:59:06;100775.22;;;15.74;62.81
71384;BME280;67558;52.166;5.004;2023-11-19T05:01:32;100766.31;;;15.74;62.46
71384;BME280;67558;52.166;5.004;2023-11-19T05:03:58;100783.63;;;15.73;62.46
71384;BME280;67558;52.166;5.004;2023-11-19T05:06:30;100777.44;;;15.72;62.26
71384;BME280;67558;52.166;5.004;2023-11-19T05:08:57;100776.06;;;15.70;62.50
71384;BME280;67558;52.166;5.004;2023-11-19T05:11:23;100788.97;;;15.59;62.78
71384;BME280;67558;52.166;5.004;2023-11-19T05:13:49;100786.47;;;15.63;62.41
71384;BME280;67558;52.166;5.004;2023-11-19T05:16:15;100800.16;;;15.66;62.19
71384;BME280;67558;52.166;5.004;2023-11-19T05:18:41;100775.19;;;15.61;62.18
71384;BME280;67558;52.166;5.004;2023-11-19T05:21:07;100789.16;;;15.63;62.35
71384;BME280;67558;52.166;5.004;2023-11-19T05:23:33;100784.78;;;15.67;61.89
71384;BME280;67558;52.166;5.004;2023-11-19T05:26:01;100785.56;;;15.67;62.08
71384;BME280;67558;52.166;5.004;2023-11-19T05:28:27;100790.97;;;15.67;61.99
71384;BME280;67558;52.166;5.004;2023-11-19T05:30:52;100785.34;;;15.64;61.91
71384;BME280;67558;52.166;5.004;2023-11-19T05:33:17;100793.44;;;15.64;61.92
71384;BME280;67558;52.166;5.004;2023-11-19T05:35:43;100793.56;;;15.59;61.70
71384;BME280;67558;52.166;5.004;2023-11-19T05:38:08;100798.94;;;15.59;61.91
71384;BME280;67558;52.166;5.004;2023-11-19T05:40:34;100790.66;;;15.55;61.86
71384;BME280;67558;52.166;5.004;2023-11-19T05:43:00;100792.47;;;15.60;61.53
71384;BME280;67558;52.166;5.004;2023-11-19T05:45:25;100795.16;;;15.60;61.57
71384;BME280;67558;52.166;5.004;2023-11-19T05:47:51;100799.44;;;15.61;61.51
71384;BME280;67558;52.166;5.004;2023-11-19T05:50:17;100799.16;;;15.62;61.62
71384;BME280;67558;52.166;5.004;2023-11-19T05:52:43;100796.75;;;15.61;61.16
71384;BME280;67558;52.166;5.004;2023-11-19T05:55:08;100798.16;;;15.58;61.72
71384;BME280;67558;52.166;5.004;2023-11-19T05:57:37;100792.75;;;15.58;61.56
71384;BME280;67558;52.166;5.004;2023-11-19T06:00:03;100794.66;;;15.57;61.42
71384;BME280;67558;52.166;5.004;2023-11-19T06:02:32;100784.28;;;15.51;61.55
71384;BME280;67558;52.166;5.004;2023-11-19T06:04:58;100788.06;;;15.50;61.65
71384;BME280;67558;52.166;5.004;2023-11-19T06:07:23;100783.56;;;15.45;61.62
71384;BME280;67558;52.166;5.004;2023-11-19T06:09:48;100776.78;;;15.48;61.88
71384;BME280;67558;52.166;5.004;2023-11-19T06:12:14;100774.28;;;15.51;61.64
71384;BME280;67558;52.166;5.004;2023-11-19T06:14:40;100780.59;;;15.47;61.87
71384;BME280;67558;52.166;5.004;2023-11-19T06:17:05;100782.16;;;15.48;61.75
71384;BME280;67558;52.166;5.004;2023-11-19T06:19:31;100782.38;;;15.51;61.45
71384;BME280;67558;52.166;5.004;2023-11-19T06:21:56;100782.38;;;15.51;61.56
71384;BME280;67558;52.166;5.004;2023-11-19T06:24:21;100782.06;;;15.39;61.83
71384;BME280;67558;52.166;5.004;2023-11-19T06:26:47;100791.66;;;15.45;61.76
71384;BME280;67558;52.166;5.004;2023-11-19T06:29:13;100791.66;;;15.45;61.55
71384;BME280;67558;52.166;5.004;2023-11-19T06:31:43;100795.25;;;15.41;61.46
71384;BME280;67558;52.166;5.004;2023-11-19T06:34:09;100784.94;;;15.29;61.92
71384;BME280;67558;52.166;5.004;2023-11-19T06:36:34;100801.44;;;15.41;61.82
71384;BME280;67558;52.166;5.004;2023-11-19T06:39:00;100791.03;;;15.34;61.65
71384;BME280;67558;52.166;5.004;2023-11-19T06:41:27;100809.00;;;15.39;61.68
71384;BME280;67558;52.166;5.004;2023-11-19T06:43:54;100811.31;;;15.32;61.87
71384;BME280;67558;52.166;5.004;2023-11-19T06:46:19;100809.81;;;15.40;61.74
71384;BME280;67558;52.166;5.004;2023-11-19T06:48:45;100813.31;;;15.40;61.69
71384;BME280;67558;52.166;5.004;2023-11-19T06:51:11;100801.16;;;15.43;61.43
71384;BME280;67558;52.166;5.004;2023-11-19T06:53:36;100813.09;;;15.36;61.57
71384;BME280;67558;52.166;5.004;2023-11-19T06:56:02;100809.00;;;15.39;61.61
71384;BME280;67558;52.166;5.004;2023-11-19T06:58:32;100812.50;;;15.40;61.29
71384;BME280;67558;52.166;5.004;2023-11-19T07:00:57;100819.50;;;15.41;61.21
71384;BME280;67558;52.166;5.004;2023-11-19T07:03:23;100808.41;;;15.42;61.24
71384;BME280;67558;52.166;5.004;2023-11-19T07:05:48;100814.69;;;15.38;61.28
71384;BME280;67558;52.166;5.004;2023-11-19T07:08:13;100820.81;;;15.43;61.43
71384;BME280;67558;52.166;5.004;2023-11-19T07:10:39;100812.72;;;15.43;61.17
71384;BME280;67558;52.166;5.004;2023-11-19T07:13:04;100809.13;;;15.34;61.24
71384;BME280;67558;52.166;5.004;2023-11-19T07:15:31;100817.78;;;15.31;61.44
71384;BME280;67558;52.166;5.004;2023-11-19T07:17:57;100832.19;;;15.40;61.19
71384;BME280;67558;52.166;5.004;2023-11-19T07:20:24;100819.91;;;15.48;61.36
71384;BME280;67558;52.166;5.004;2023-11-19T07:22:49;100829.09;;;15.47;61.18
71384;BME280;67558;52.166;5.004;2023-11-19T07:25:15;100832.88;;;15.46;61.20
71384;BME280;67558;52.166;5.004;2023-11-19T07:27:40;100827.41;;;15.51;61.08
71384;BME280;67558;52.166;5.004;2023-11-19T07:30:06;100824.50;;;15.47;61.12
71384;BME280;67558;52.166;5.004;2023-11-19T07:32:33;100835.88;;;15.44;61.20
71384;BME280;67558;52.166;5.004;2023-11-19T07:34:58;100836.59;;;15.50;60.83
71384;BME280;67558;52.166;5.004;2023-11-19T07:37:23;100836.91;;;15.62;61.00
71384;BME280;67558;52.166;5.004;2023-11-19T07:39:49;100840.41;;;15.63;60.92
71384;BME280;67558;52.166;5.004;2023-11-19T07:42:14;100841.19;;;15.63;60.87
71384;BME280;67558;52.166;5.004;2023-11-19T07:44:40;100834.31;;;15.71;60.70
71384;BME280;67558;52.166;5.004;2023-11-19T07:47:06;100834.91;;;15.68;61.15
71384;BME280;67558;52.166;5.004;2023-11-19T07:49:32;100846.19;;;15.70;60.99
71384;BME280;67558;52.166;5.004;2023-11-19T07:51:58;100835.63;;;15.73;61.03
71384;BME280;67558;52.166;5.004;2023-11-19T07:54:23;100838.56;;;15.77;60.66
71384;BME280;67558;52.166;5.004;2023-11-19T07:56:49;100834.75;;;15.78;60.61
71384;BME280;67558;52.166;5.004;2023-11-19T07:59:15;100833.75;;;15.88;60.69
71384;BME280;67558;52.166;5.004;2023-11-19T08:01:41;100835.34;;;15.75;60.79
71384;BME280;67558;52.166;5.004;2023-11-19T08:04:06;100834.16;;;15.81;60.74
71384;BME280;67558;52.166;5.004;2023-11-19T08:06:31;100839.56;;;15.81;60.80
71384;BME280;67558;52.166;5.004;2023-11-19T08:08:57;100836.44;;;15.88;60.88
71384;BME280;67558;52.166;5.004;2023-11-19T08:11:22;100822.97;;;15.88;60.69
71384;BME280;67558;52.166;5.004;2023-11-19T08:13:48;100822.84;;;15.93;60.70
71384;BME280;67558;52.166;5.004;2023-11-19T08:16:13;100829.53;;;15.95;60.72
71384;BME280;67558;52.166;5.004;2023-11-19T08:18:44;100837.13;;;15.93;60.45
71384;BME280;67558;52.166;5.004;2023-11-19T08:21:09;100834.75;;;15.92;60.91
71384;BME280;67558;52.166;5.004;2023-11-19T08:23:36;100842.03;;;15.91;60.52
71384;BME280;67558;52.166;5.004;2023-11-19T08:26:01;100843.66;;;15.92;60.91
71384;BME280;67558;52.166;5.004;2023-11-19T08:28:26;100832.63;;;15.89;60.63
71384;BME280;67558;52.166;5.004;2023-11-19T08:30:52;100841.94;;;15.96;60.87
71384;BME280;67558;52.166;5.004;2023-11-19T08:33:18;100851.94;;;15.96;61.11
71384;BME280;67558;52.166;5.004;2023-11-19T08:35:43;100853.75;;;16.01;61.14
71384;BME280;67558;52.166;5.004;2023-11-19T08:38:08;100849.13;;;16.01;61.29
71384;BME280;67558;52.166;5.004;2023-11-19T08:40:34;100847.16;;;16.07;61.50
71384;BME280;67558;52.166;5.004;2023-11-19T08:42:59;100845.41;;;16.11;61.22
71384;BME280;67558;52.166;5.004;2023-11-19T08:45:25;100845.81;;;16.18;61.17
71384;BME280;67558;52.166;5.004;2023-11-19T08:47:50;100853.91;;;16.18;61.44
71384;BME280;67558;52.166;5.004;2023-11-19T08:50:16;100857.50;;;16.27;61.43
71384;BME280;67558;52.166;5.004;2023-11-19T08:52:41;100849.28;;;16.32;61.44
71384;BME280;67558;52.166;5.004;2023-11-19T08:55:07;100853.59;;;16.33;61.40
71384;BME280;67558;52.166;5.004;2023-11-19T08:57:32;100860.50;;;16.40;61.41
71384;BME280;67558;52.166;5.004;2023-11-19T08:59:58;100859.88;;;16.43;61.49
71384;BME280;67558;52.166;5.004;2023-11-19T09:02:23;100844.97;;;16.45;61.38
71384;BME280;67558;52.166;5.004;2023-11-19T09:04:49;100849.47;;;16.50;61.08
71384;BME280;67558;52.166;5.004;2023-11-19T09:07:14;100858.38;;;16.50;61.00
71384;BME280;67558;52.166;5.004;2023-11-19T09:09:39;100855.34;;;16.52;61.01
71384;BME280;67558;52.166;5.004;2023-11-19T09:12:05;100850.94;;;16.56;61.12
71384;BME280;67558;52.166;5.004;2023-11-19T09:14:31;100845.34;;;16.52;60.98
71384;BME280;67558;52.166;5.004;2023-11-19T09:16:57;100853.03;;;16.59;60.96
71384;BME280;67558;52.166;5.004;2023-11-19T09:19:23;100855.91;;;16.63;61.00
71384;BME280;67558;52.166;5.004;2023-11-19T09:21:48;100846.44;;;16.65;60.90
71384;BME280;67558;52.166;5.004;2023-11-19T09:24:14;100846.22;;;16.62;60.66
71384;BME280;67558;52.166;5.004;2023-11-19T09:26:40;100844.22;;;16.67;60.51
71384;BME280;67558;52.166;5.004;2023-11-19T09:29:06;100845.38;;;16.75;60.89
71384;BME280;67558;52.166;5.004;2023-11-19T09:31:32;100843.09;;;16.82;60.59
71384;BME280;67558;52.166;5.004;2023-11-19T09:33:58;100850.28;;;16.87;60.33
71384;BME280;67558;52.166;5.004;2023-11-19T09:36:23;100854.88;;;16.86;60.77
71384;BME280;67558;52.166;5.004;2023-11-19T09:38:48;100854.56;;;16.88;60.45
71384;BME280;67558;52.166;5.004;2023-11-19T09:41:14;100852.97;;;16.87;60.42
71384;BME280;67558;52.166;5.004;2023-11-19T09:43:41;100845.38;;;16.89;60.52
71384;BME280;67558;52.166;5.004;2023-11-19T09:46:09;100837.75;;;16.91;60.62
71384;BME280;67558;52.166;5.004;2023-11-19T09:48:37;100834.78;;;17.01;60.53
71384;BME280;67558;52.166;5.004;2023-11-19T09:51:04;100841.66;;;17.07;60.69
71384;BME280;67558;52.166;5.004;2023-11-19T09:53:31;100845.25;;;17.16;60.37
71384;BME280;67558;52.166;5.004;2023-11-19T09:55:57;100838.56;;;17.23;60.11
71384;BME280;67558;52.166;5.004;2023-11-19T09:58:24;100841.28;;;17.23;60.00
71384;BME280;67558;52.166;5.004;2023-11-19T10:00:50;100830.16;;;17.24;60.18
71384;BME280;67558;52.166;5.004;2023-11-19T10:03:17;100839.06;;;17.25;59.89
71384;BME280;67558;52.166;5.004;2023-11-19T10:05:43;100832.38;;;17.22;59.95
71384;BME280;67558;52.166;5.004;2023-11-19T10:08:08;100825.44;;;17.30;59.63
71384;BME280;67558;52.166;5.004;2023-11-19T10:10:34;100833.06;;;17.28;59.95
71384;BME280;67558;52.166;5.004;2023-11-19T10:13:00;100825.47;;;17.38;59.79
71384;BME280;67558;52.166;5.004;2023-11-19T10:15:26;100813.72;;;17.43;59.71
71384;BME280;67558;52.166;5.004;2023-11-19T10:17:54;100822.56;;;17.57;59.84
71384;BME280;67558;52.166;5.004;2023-11-19T10:20:20;100824.81;;;17.64;59.63
71384;BME280;67558;52.166;5.004;2023-11-19T10:22:45;100820.78;;;17.61;59.41
71384;BME280;67558;52.166;5.004;2023-11-19T10:27:49;100812.94;;;17.83;58.97
71384;BME280;67558;52.166;5.004;2023-11-19T10:30:20;100819.81;;;17.89;58.43
71384;BME280;67558;52.166;5.004;2023-11-19T10:35:27;100809.09;;;17.75;57.82
71384;BME280;67558;52.166;5.004;2023-11-19T10:37:52;100817.78;;;17.94;57.70
71384;BME280;67558;52.166;5.004;2023-11-19T10:40:18;100808.03;;;17.93;57.07
71384;BME280;67558;52.166;5.004;2023-11-19T10:42:43;100818.59;;;18.04;57.29
71384;BME280;67558;52.166;5.004;2023-11-19T10:45:22;100808.53;;;17.95;56.12
71384;BME280;67558;52.166;5.004;2023-11-19T10:47:51;100802.06;;;18.14;56.82
71384;BME280;67558;52.166;5.004;2023-11-19T10:50:16;100809.53;;;18.17;56.65
71384;BME280;67558;52.166;5.004;2023-11-19T10:52:43;100801.88;;;18.19;56.13
71384;BME280;67558;52.166;5.004;2023-11-19T10:55:11;100810.00;;;18.19;55.40
71384;BME280;67558;52.166;5.004;2023-11-19T10:57:43;100804.75;;;18.05;54.60
71384;BME280;67558;52.166;5.004;2023-11-19T11:00:13;100822.53;;;17.97;54.45
71384;BME280;67558;52.166;5.004;2023-11-19T11:02:45;100801.03;;;17.84;54.69
71384;BME280;67558;52.166;5.004;2023-11-19T11:05:14;100801.19;;;17.96;54.09
71384;BME280;67558;52.166;5.004;2023-11-19T11:07:42;100813.13;;;17.86;53.89
71384;BME280;67558;52.166;5.004;2023-11-19T11:10:10;100818.25;;;17.96;54.12
71384;BME280;67558;52.166;5.004;2023-11-19T11:12:37;100811.41;;;17.99;54.01
71384;BME280;67558;52.166;5.004;2023-11-19T11:15:07;100817.63;;;17.99;53.92
71384;BME280;67558;52.166;5.004;2023-11-19T11:17:33;100814.44;;;17.97;53.75
71384;BME280;67558;52.166;5.004;2023-11-19T11:19:59;100806.50;;;18.10;53.51
71384;BME280;67558;52.166;5.004;2023-11-19T11:22:25;100803.59;;;17.97;53.19
71384;BME280;67558;52.166;5.004;2023-11-19T11:25:06;100795.69;;;18.10;53.47
71384;BME280;67558;52.166;5.004;2023-11-19T11:28:09;100789.63;;;18.13;52.62
71384;BME280;67558;52.166;5.004;2023-11-19T11:30:45;100801.72;;;18.15;53.20
71384;BME280;67558;52.166;5.004;2023-11-19T11:33:24;100800.31;;;18.27;52.88
71384;BME280;67558;52.166;5.004;2023-11-19T11:36:11;100793.47;;;18.20;52.97
71384;BME280;67558;52.166;5.004;2023-11-19T11:38:40;100785.34;;;18.29;53.01
71384;BME280;67558;52.166;5.004;2023-11-19T11:41:23;100795.22;;;18.34;53.35
71384;BME280;67558;52.166;5.004;2023-11-19T11:43:51;100792.34;;;18.39;53.42
71384;BME280;67558;52.166;5.004;2023-11-19T11:49:08;100785.19;;;18.43;53.54
71384;BME280;67558;52.166;5.004;2023-11-19T11:57:13;100777.53;;;18.36;54.60
71384;BME280;67558;52.166;5.004;2023-11-19T11:59:50;100772.59;;;18.38;54.88
71384;BME280;67558;52.166;5.004;2023-11-19T12:02:18;100776.56;;;18.41;54.57
71384;BME280;67558;52.166;5.004;2023-11-19T12:04:48;100772.94;;;18.37;54.65
71384;BME280;67558;52.166;5.004;2023-11-19T12:07:33;100765.13;;;18.35;54.97
71384;BME280;67558;52.166;5.004;2023-11-19T12:10:09;100774.03;;;18.27;54.95
71384;BME280;67558;52.166;5.004;2023-11-19T12:12:37;100753.34;;;18.31;55.06
71384;BME280;67558;52.166;5.004;2023-11-19T12:15:09;100761.47;;;18.31;54.94
71384;BME280;67558;52.166;5.004;2023-11-19T12:17:46;100766.56;;;18.33;54.65
71384;BME280;67558;52.166;5.004;2023-11-19T12:20:15;100765.91;;;18.18;54.75
71384;BME280;67558;52.166;5.004;2023-11-19T12:22:42;100771.50;;;18.22;54.61
71384;BME280;67558;52.166;5.004;2023-11-19T12:25:09;100775.78;;;18.23;54.24
71384;BME280;67558;52.166;5.004;2023-11-19T12:27:36;100769.25;;;18.24;54.06
71384;BME280;67558;52.166;5.004;2023-11-19T12:30:03;100780.09;;;18.24;54.03
71384;BME280;67558;52.166;5.004;2023-11-19T12:32:41;100776.44;;;18.20;53.59
71384;BME280;67558;52.166;5.004;2023-11-19T12:35:08;100780.69;;;18.04;53.71
71384;BME280;67558;52.166;5.004;2023-11-19T12:37:44;100781.19;;;18.23;52.68
71384;BME280;67558;52.166;5.004;2023-11-19T12:40:17;100769.22;;;18.15;52.38
71384;BME280;67558;52.166;5.004;2023-11-19T12:42:43;100783.59;;;18.25;52.44
71384;BME280;67558;52.166;5.004;2023-11-19T12:45:09;100781.50;;;18.21;52.44
71384;BME280;67558;52.166;5.004;2023-11-19T12:47:40;100779.44;;;18.27;52.15
71384;BME280;67558;52.166;5.004;2023-11-19T12:50:07;100774.69;;;18.24;51.81
71384;BME280;67558;52.166;5.004;2023-11-19T12:52:36;100782.13;;;18.10;51.36
71384;BME280;67558;52.166;5.004;2023-11-19T12:55:23;100776.72;;;18.18;51.71
71384;BME280;67558;52.166;5.004;2023-11-19T12:57:48;100784.69;;;18.15;52.01
71384;BME280;67558;52.166;5.004;2023-11-19T13:00:22;100770.00;;;17.90;52.19
71384;BME280;67558;52.166;5.004;2023-11-19T13:02:52;100788.34;;;18.01;52.44